Farrar, Georgia
Current Conditions -  °F | °C
As of 12:15 AM on Tuesday 23 Dec 2014 (Local Time) from KCVC Reporting Station
Light Rain Light Rain  
Wind Chill: 39°   Ceiling: 300
Heat Index: 43°   Visibility: 2mi
Dew Point: 43°   Wind: 7mph
Humidity: 100%   Direction: 80°E
Pressure: 29.95"   Gusts: NA
Location:  33.4001°N, 83.6636°W
Report Text: KCVC 230515Z AUTO 08006KT 2SM -RA OVC003 06/06 A2995 RMK AO2
Loading
Personal Weather Stations






























Interactive Weather Map New forecast layout! Learn more

10-Day Weather Forecast

Advertisements
Track Severe Weather on mobile